createdAt,value
2017-10-22T00:00:05.954Z,99853
2017-10-22T00:01:05.920Z,99854
2017-10-22T00:02:06.058Z,99851
2017-10-22T00:03:05.459Z,99855
2017-10-22T00:04:05.992Z,99853
2017-10-22T00:05:06.130Z,99852
2017-10-22T00:06:05.595Z,99853
2017-10-22T00:07:05.560Z,99851
2017-10-22T00:08:05.621Z,99849
2017-10-22T00:09:05.738Z,99848
2017-10-22T00:10:06.330Z,99852
2017-10-22T00:11:06.267Z,99851
2017-10-22T00:12:05.848Z,99849
2017-10-22T00:13:06.446Z,99854
2017-10-22T00:14:05.810Z,99849
2017-10-22T00:15:06.426Z,99852
2017-10-22T00:16:05.925Z,99848
2017-10-22T00:17:05.977Z,99852
2017-10-22T00:18:05.997Z,99851
2017-10-22T00:19:06.524Z,99851
2017-10-22T00:20:06.711Z,99844
2017-10-22T00:21:06.617Z,99845
2017-10-22T00:22:06.646Z,99845
2017-10-22T00:23:06.856Z,99841
2017-10-22T00:24:06.317Z,99831
2017-10-22T00:25:06.295Z,99833
2017-10-22T00:26:06.891Z,99836
2017-10-22T00:27:07.024Z,99833
2017-10-22T00:28:06.531Z,99833
2017-10-22T00:29:07.027Z,99831
2017-10-22T00:30:07.075Z,99830
2017-10-22T00:31:07.099Z,99833
2017-10-22T00:32:07.280Z,99833
2017-10-22T00:33:06.843Z,99832
2017-10-22T00:34:06.912Z,99836
2017-10-22T00:35:07.472Z,99833
2017-10-22T00:36:06.920Z,99832
2017-10-22T00:37:07.003Z,99834
2017-10-22T00:38:07.068Z,99833
2017-10-22T00:39:07.769Z,99835
2017-10-22T00:40:07.811Z,99830
2017-10-22T00:41:07.869Z,99828
2017-10-22T00:42:07.799Z,99828
2017-10-22T00:43:07.444Z,99828
2017-10-22T00:44:07.425Z,99824
2017-10-22T00:45:07.438Z,99823
2017-10-22T00:46:08.175Z,99819
2017-10-22T00:47:07.653Z,99823
2017-10-22T00:48:08.233Z,99826
2017-10-22T00:49:07.748Z,99824
2017-10-22T00:50:08.186Z,99822
2017-10-22T00:51:08.287Z,99822
2017-10-22T00:52:08.460Z,99822
2017-10-22T00:53:07.843Z,99818
2017-10-22T00:54:08.022Z,99820
2017-10-22T00:55:08.579Z,99824
2017-10-22T00:56:08.464Z,99819
2017-10-22T00:57:07.954Z,99819
2017-10-22T00:58:08.521Z,99821
2017-10-22T00:59:08.719Z,99822
2017-10-22T01:00:08.761Z,99819
2017-10-22T01:01:08.781Z,99823
2017-10-22T01:02:08.200Z,99821
2017-10-22T01:03:08.271Z,99819
2017-10-22T01:04:08.253Z,99819
2017-10-22T01:05:08.315Z,99819
2017-10-22T01:06:08.957Z,99817
2017-10-22T01:07:08.894Z,99814
2017-10-22T01:08:09.002Z,99815
2017-10-22T01:09:08.934Z,99806
2017-10-22T01:10:09.097Z,99811
2017-10-22T01:11:08.486Z,99811
2017-10-22T01:12:09.087Z,99807
2017-10-22T01:13:08.666Z,99802
2017-10-22T01:14:08.605Z,99804
2017-10-22T01:15:09.469Z,99803
2017-10-22T01:16:08.826Z,99804
2017-10-22T01:17:09.019Z,99805
2017-10-22T01:18:09.561Z,99801
2017-10-22T01:19:09.026Z,99800
2017-10-22T01:20:09.071Z,99800
2017-10-22T01:21:09.061Z,99798
2017-10-22T01:22:09.739Z,99802
2017-10-22T01:23:08.902Z,99796
2017-10-22T01:24:08.913Z,99796
2017-10-22T01:25:09.504Z,99796
2017-10-22T01:26:09.138Z,99798
2017-10-22T01:27:09.748Z,99796
2017-10-22T01:28:09.690Z,99795
2017-10-22T01:29:09.870Z,99794
2017-10-22T01:30:09.274Z,99793
2017-10-22T01:31:09.350Z,99798
2017-10-22T01:32:09.408Z,99801
2017-10-22T01:33:09.469Z,99795
2017-10-22T01:34:10.172Z,99800
2017-10-22T01:35:09.658Z,99798
2017-10-22T01:36:10.224Z,99790
2017-10-22T01:37:09.618Z,99794
2017-10-22T01:38:10.305Z,99789
2017-10-22T01:39:10.341Z,99790
2017-10-22T01:40:10.367Z,99786
2017-10-22T01:41:10.337Z,99781
2017-10-22T01:42:09.910Z,99775
2017-10-22T01:43:10.034Z,99777
2017-10-22T01:44:10.128Z,99780
2017-10-22T01:45:10.804Z,99784
2017-10-22T01:46:10.191Z,99779
2017-10-22T01:47:10.284Z,99778
2017-10-22T01:48:10.868Z,99778
2017-10-22T01:49:10.757Z,99774
2017-10-22T01:50:10.477Z,99772
2017-10-22T01:51:10.972Z,99774
2017-10-22T01:52:10.524Z,99770
2017-10-22T01:53:11.119Z,99773
2017-10-22T01:54:10.485Z,99773
2017-10-22T01:55:11.207Z,99774
2017-10-22T01:56:10.728Z,99773
2017-10-22T01:57:10.657Z,99771
2017-10-22T01:58:10.735Z,99767
2017-10-22T01:59:11.500Z,99765
2017-10-22T02:00:11.487Z,99769
2017-10-22T02:01:11.050Z,99770
2017-10-22T02:02:11.667Z,99770
2017-10-22T02:03:11.697Z,99767
2017-10-22T02:04:11.754Z,99774
2017-10-22T02:05:11.305Z,99776
2017-10-22T02:06:11.337Z,99775
2017-10-22T02:07:11.261Z,99769
2017-10-22T02:08:11.942Z,99773
2017-10-22T02:09:11.342Z,99769
2017-10-22T02:10:11.948Z,99775
2017-10-22T02:11:11.561Z,99769
2017-10-22T02:12:12.160Z,99772
2017-10-22T02:13:12.060Z,99774
2017-10-22T02:14:11.571Z,99770
2017-10-22T02:15:11.658Z,99763
2017-10-22T02:16:12.352Z,99767
2017-10-22T02:17:12.392Z,99767
2017-10-22T02:18:11.949Z,99762
2017-10-22T02:19:12.507Z,99762
2017-10-22T02:20:12.532Z,99763
2017-10-22T02:21:12.476Z,99761
2017-10-22T02:22:11.950Z,99754
2017-10-22T02:23:12.538Z,99765
2017-10-22T02:24:12.557Z,99767
2017-10-22T02:25:12.713Z,99770
2017-10-22T02:26:12.822Z,99771
2017-10-22T02:27:12.814Z,99771
2017-10-22T02:28:12.833Z,99773
2017-10-22T02:29:12.234Z,99765
2017-10-22T02:30:12.781Z,99765
2017-10-22T02:31:12.782Z,99766
2017-10-22T02:32:12.927Z,99763
2017-10-22T02:33:12.930Z,99765
2017-10-22T02:34:12.831Z,99768
2017-10-22T02:35:12.448Z,99762
2017-10-22T02:36:12.427Z,99764
2017-10-22T02:37:12.595Z,99757
2017-10-22T02:38:12.536Z,99755
2017-10-22T02:39:12.561Z,99751
2017-10-22T02:40:12.659Z,99759
2017-10-22T02:41:12.714Z,99751
2017-10-22T02:42:13.199Z,99757
2017-10-22T02:43:12.743Z,99756
2017-10-22T02:44:12.908Z,99755
2017-10-22T02:45:12.972Z,99755
2017-10-22T02:46:13.038Z,99748
2017-10-22T02:47:13.546Z,99756
2017-10-22T02:48:13.673Z,99751
2017-10-22T02:49:13.717Z,99744
2017-10-22T02:50:13.664Z,99739
2017-10-22T02:51:13.678Z,99739
2017-10-22T02:52:13.791Z,99744
2017-10-22T02:53:13.255Z,99746
2017-10-22T02:54:13.376Z,99742
2017-10-22T02:55:13.397Z,99741
2017-10-22T02:56:13.404Z,99737
2017-10-22T02:57:14.062Z,99737
2017-10-22T02:58:13.593Z,99740
2017-10-22T02:59:14.137Z,99735
2017-10-22T03:00:14.068Z,99738
2017-10-22T03:01:14.364Z,99739
2017-10-22T03:02:14.236Z,99736
2017-10-22T03:03:14.392Z,99736
2017-10-22T03:04:14.430Z,99739
2017-10-22T03:05:13.936Z,99730
2017-10-22T03:06:13.984Z,99733
2017-10-22T03:07:14.594Z,99737
2017-10-22T03:08:14.092Z,99728
2017-10-22T03:09:14.117Z,99735
2017-10-22T03:10:14.094Z,99723
2017-10-22T03:11:14.826Z,99725
2017-10-22T03:12:14.785Z,99727
2017-10-22T03:13:14.314Z,99723
2017-10-22T03:14:14.394Z,99726
2017-10-22T03:15:14.524Z,99727
2017-10-22T03:16:14.466Z,99726
2017-10-22T03:17:14.632Z,99725
2017-10-22T03:18:15.211Z,99726
2017-10-22T03:19:15.174Z,99726
2017-10-22T03:20:15.194Z,99725
2017-10-22T03:21:14.838Z,99727
2017-10-22T03:22:14.803Z,99727
2017-10-22T03:23:15.501Z,99724
2017-10-22T03:24:15.518Z,99722
2017-10-22T03:25:15.001Z,99726
2017-10-22T03:26:15.043Z,99730
2017-10-22T03:27:14.998Z,99717
2017-10-22T03:28:15.063Z,99724
2017-10-22T03:29:15.182Z,99721
2017-10-22T03:30:15.812Z,99724
2017-10-22T03:31:15.701Z,99724
2017-10-22T03:32:15.327Z,99714
2017-10-22T03:33:15.933Z,99726
2017-10-22T03:34:15.960Z,99725
2017-10-22T03:35:15.377Z,99724
2017-10-22T03:36:16.068Z,99721
2017-10-22T03:37:16.084Z,99722
2017-10-22T03:38:15.527Z,99720
2017-10-22T03:39:15.575Z,99719
2017-10-22T03:40:16.266Z,99722
2017-10-22T03:41:15.775Z,99720
2017-10-22T03:42:16.257Z,99725
2017-10-22T03:43:15.839Z,99717
2017-10-22T03:44:16.394Z,99721
2017-10-22T03:45:16.397Z,99719
2017-10-22T03:46:15.780Z,99711
2017-10-22T03:47:15.869Z,99722
2017-10-22T03:48:16.045Z,99720
2017-10-22T03:49:16.639Z,99719
2017-10-22T03:50:16.059Z,99711
2017-10-22T03:51:16.690Z,99712
2017-10-22T03:52:16.782Z,99716
2017-10-22T03:53:16.244Z,99711
2017-10-22T03:54:16.963Z,99712
2017-10-22T03:55:17.008Z,99707
2017-10-22T03:56:16.465Z,99717
2017-10-22T03:57:16.491Z,99717
2017-10-22T03:58:16.665Z,99713
2017-10-22T03:59:16.616Z,99715
2017-10-22T04:00:16.669Z,99705
2017-10-22T04:01:17.276Z,99702
2017-10-22T04:02:17.438Z,99712
2017-10-22T04:03:16.811Z,99712
2017-10-22T04:04:16.984Z,99701
2017-10-22T04:05:17.012Z,99700
2017-10-22T04:06:17.031Z,99708
2017-10-22T04:07:17.625Z,99707
2017-10-22T04:08:17.696Z,99710
2017-10-22T04:09:17.351Z,99710
2017-10-22T04:10:17.405Z,99712
2017-10-22T04:11:17.378Z,99723
2017-10-22T04:12:17.962Z,99714
2017-10-22T04:13:17.454Z,99717
2017-10-22T04:14:17.482Z,99717
2017-10-22T04:15:17.655Z,99719
2017-10-22T04:16:18.247Z,99714
2017-10-22T04:17:18.311Z,99720
2017-10-22T04:18:17.819Z,99716
2017-10-22T04:19:18.382Z,99710
2017-10-22T04:20:18.321Z,99714
2017-10-22T04:21:18.491Z,99708
2017-10-22T04:22:18.502Z,99716
2017-10-22T04:23:18.435Z,99713
2017-10-22T04:24:18.459Z,99716
2017-10-22T04:25:17.953Z,99716
2017-10-22T04:26:18.556Z,99715
2017-10-22T04:27:18.644Z,99713
2017-10-22T04:28:18.119Z,99717
2017-10-22T04:29:18.848Z,99711
2017-10-22T04:30:18.387Z,99711
2017-10-22T04:31:18.976Z,99714
2017-10-22T04:32:18.356Z,99715
2017-10-22T04:33:18.801Z,99711
2017-10-22T04:34:19.021Z,99709
2017-10-22T04:35:19.029Z,99713
2017-10-22T04:36:19.252Z,99710
2017-10-22T04:37:18.704Z,99714
2017-10-22T04:38:18.886Z,99710
2017-10-22T04:39:18.904Z,99713
2017-10-22T04:40:19.406Z,99715
2017-10-22T04:41:19.559Z,99716
2017-10-22T04:42:19.468Z,99717
2017-10-22T04:43:19.078Z,99723
2017-10-22T04:44:19.026Z,99721
2017-10-22T04:45:19.577Z,99722
2017-10-22T04:46:19.177Z,99720
2017-10-22T04:47:19.156Z,99725
2017-10-22T04:48:19.357Z,99723
2017-10-22T04:49:19.791Z,99723
2017-10-22T04:50:19.437Z,99722
2017-10-22T04:51:19.498Z,99729
2017-10-22T04:52:20.092Z,99729
2017-10-22T04:53:20.050Z,99730
2017-10-22T04:54:20.062Z,99729
2017-10-22T04:55:19.553Z,99732
2017-10-22T04:56:20.210Z,99726
2017-10-22T04:57:20.311Z,99731
2017-10-22T04:58:19.800Z,99737
2017-10-22T04:59:19.830Z,99737
2017-10-22T05:00:20.335Z,99734
2017-10-22T05:01:20.353Z,99737
2017-10-22T05:02:20.526Z,99737
2017-10-22T05:03:20.528Z,99739
2017-10-22T05:04:20.560Z,99735
2017-10-22T05:05:19.952Z,99737
2017-10-22T05:06:20.559Z,99734
2017-10-22T05:07:20.707Z,99729
2017-10-22T05:08:20.216Z,99727
2017-10-22T05:09:20.137Z,99734
2017-10-22T05:10:20.795Z,99727
2017-10-22T05:11:20.795Z,99720
2017-10-22T05:12:20.272Z,99727
2017-10-22T05:13:20.238Z,99723
2017-10-22T05:14:20.958Z,99722
2017-10-22T05:15:20.420Z,99711
2017-10-22T05:16:20.473Z,99707
2017-10-22T05:17:20.547Z,99710
2017-10-22T05:18:21.144Z,99706
2017-10-22T05:19:21.071Z,99700
2017-10-22T05:20:21.077Z,99690
2017-10-22T05:21:20.714Z,99705
2017-10-22T05:22:20.802Z,99697
2017-10-22T05:23:21.313Z,99690
2017-10-22T05:24:20.889Z,99695
2017-10-22T05:25:20.946Z,99692
2017-10-22T05:26:21.003Z,99685
2017-10-22T05:27:21.497Z,99692
2017-10-22T05:28:21.079Z,99683
2017-10-22T05:29:21.050Z,99682
2017-10-22T05:30:21.689Z,99690
2017-10-22T05:31:21.696Z,99685
2017-10-22T05:32:21.713Z,99678
2017-10-22T05:33:21.327Z,99679
2017-10-22T05:34:21.907Z,99676
2017-10-22T05:35:21.970Z,99677
2017-10-22T05:36:21.890Z,99677
2017-10-22T05:37:21.451Z,99677
2017-10-22T05:38:21.524Z,99667
2017-10-22T05:39:21.644Z,99675
2017-10-22T05:40:21.684Z,99670
2017-10-22T05:41:22.316Z,99675
2017-10-22T05:42:22.261Z,99676
2017-10-22T05:43:22.296Z,99667
2017-10-22T05:44:22.361Z,99673
2017-10-22T05:45:22.576Z,99669
2017-10-22T05:46:22.499Z,99659
2017-10-22T05:47:22.705Z,99670
2017-10-22T05:48:22.726Z,99668
2017-10-22T05:49:22.213Z,99671
2017-10-22T05:50:22.248Z,99671
2017-10-22T05:51:22.263Z,99674
2017-10-22T05:52:22.350Z,99669
2017-10-22T05:53:22.962Z,99676
2017-10-22T05:54:22.868Z,99672
2017-10-22T05:55:22.442Z,99677
2017-10-22T05:56:23.078Z,99674
2017-10-22T05:57:23.041Z,99673
2017-10-22T05:58:23.156Z,99676
2017-10-22T05:59:23.215Z,99675
2017-10-22T06:00:22.728Z,99676
2017-10-22T06:01:23.167Z,99676
2017-10-22T06:02:23.276Z,99679
2017-10-22T06:03:22.759Z,99685
2017-10-22T06:04:22.770Z,99679
2017-10-22T06:05:22.874Z,99687
2017-10-22T06:06:22.982Z,99679
2017-10-22T06:07:23.032Z,99675
2017-10-22T06:08:23.509Z,99680
2017-10-22T06:09:23.068Z,99683
2017-10-22T06:10:23.130Z,99684
2017-10-22T06:11:23.122Z,99680
2017-10-22T06:12:23.827Z,99684
2017-10-22T06:13:23.223Z,99678
2017-10-22T06:14:23.399Z,99675
2017-10-22T06:15:23.908Z,99676
2017-10-22T06:16:23.432Z,99677
2017-10-22T06:17:23.507Z,99679
2017-10-22T06:18:24.145Z,99683
2017-10-22T06:19:23.667Z,99683
2017-10-22T06:20:24.134Z,99682
2017-10-22T06:21:23.666Z,99676
2017-10-22T06:22:24.323Z,99685
2017-10-22T06:23:23.849Z,99680
2017-10-22T06:24:23.757Z,99684
2017-10-22T06:25:23.919Z,99680
2017-10-22T06:26:24.409Z,99680
2017-10-22T06:27:24.603Z,99687
2017-10-22T06:28:24.014Z,99686
2017-10-22T06:29:24.586Z,99689
2017-10-22T06:30:24.104Z,99691
2017-10-22T06:31:24.281Z,99697
2017-10-22T06:32:24.819Z,99697
2017-10-22T06:33:24.300Z,99698
2017-10-22T06:34:24.910Z,99698
2017-10-22T06:35:24.419Z,99696
2017-10-22T06:36:25.083Z,99696
2017-10-22T06:37:24.530Z,99695
2017-10-22T06:38:25.136Z,99704
2017-10-22T06:39:25.297Z,99700
2017-10-22T06:40:25.218Z,99698
2017-10-22T06:41:24.842Z,99701
2017-10-22T06:42:24.890Z,99707
2017-10-22T06:43:25.406Z,99703
2017-10-22T06:44:25.043Z,99703
2017-10-22T06:45:25.549Z,99701
2017-10-22T06:46:25.585Z,99708
2017-10-22T06:47:25.106Z,99700
2017-10-22T06:48:25.815Z,99704
2017-10-22T06:49:25.389Z,99705
2017-10-22T06:50:25.926Z,99702
2017-10-22T06:51:26.015Z,99702
2017-10-22T06:52:26.089Z,99706
2017-10-22T06:53:26.088Z,99709
2017-10-22T06:54:26.032Z,99710
2017-10-22T06:55:25.603Z,99711
2017-10-22T06:56:26.105Z,99711
2017-10-22T06:57:26.279Z,99715
2017-10-22T06:58:26.204Z,99708
2017-10-22T06:59:26.361Z,99719
2017-10-22T07:00:25.874Z,99711
2017-10-22T07:01:26.357Z,99714
2017-10-22T07:02:26.570Z,99718
2017-10-22T07:03:26.495Z,99718
2017-10-22T07:04:25.996Z,99715
2017-10-22T07:05:26.644Z,99717
2017-10-22T07:06:26.722Z,99712
2017-10-22T07:07:26.744Z,99717
2017-10-22T07:08:26.808Z,99716
2017-10-22T07:09:26.826Z,99719
2017-10-22T07:10:26.790Z,99711
2017-10-22T07:11:26.838Z,99718
2017-10-22T07:12:26.978Z,99721
2017-10-22T07:13:27.012Z,99714
2017-10-22T07:14:27.038Z,99716
2017-10-22T07:20:05.355Z,99715
2017-10-22T07:21:05.933Z,99720
2017-10-22T07:22:05.936Z,99718
2017-10-22T07:23:05.886Z,99717
2017-10-22T07:24:05.953Z,99725
2017-10-22T07:25:06.109Z,99724
2017-10-22T07:26:06.187Z,99720
2017-10-22T07:27:05.705Z,99726
2017-10-22T07:28:06.165Z,99730
2017-10-22T07:29:05.684Z,99726
2017-10-22T07:30:06.352Z,99730
2017-10-22T07:31:05.818Z,99731
2017-10-22T07:32:06.405Z,99729
2017-10-22T07:33:06.514Z,99730
2017-10-22T07:34:05.933Z,99736
2017-10-22T07:35:06.543Z,99737
2017-10-22T07:36:06.157Z,99734
2017-10-22T07:37:06.183Z,99738
2017-10-22T07:38:06.171Z,99742
2017-10-22T07:39:06.113Z,99734
2017-10-22T07:40:06.295Z,99737
2017-10-22T07:41:06.777Z,99745
2017-10-22T07:42:06.393Z,99733
2017-10-22T07:43:06.482Z,99741
2017-10-22T07:44:07.056Z,99743
2017-10-22T07:45:07.145Z,99738
2017-10-22T07:46:07.206Z,99743
2017-10-22T07:47:06.660Z,99743
2017-10-22T07:48:06.792Z,99744
2017-10-22T07:49:07.387Z,99747
2017-10-22T07:50:06.771Z,99744
2017-10-22T07:51:06.788Z,99745
2017-10-22T07:52:06.883Z,99749
2017-10-22T07:53:06.907Z,99744
2017-10-22T07:54:07.067Z,99747
2017-10-22T07:55:07.039Z,99746
2017-10-22T07:56:07.186Z,99751
2017-10-22T07:57:07.253Z,99749
2017-10-22T07:58:07.351Z,99750
2017-10-22T07:59:07.387Z,99746
2017-10-22T08:00:07.424Z,99745
2017-10-22T08:01:07.920Z,99748
2017-10-22T08:02:07.534Z,99750
2017-10-22T08:03:07.448Z,99753
2017-10-22T08:04:08.021Z,99750
2017-10-22T08:05:08.215Z,99752
2017-10-22T08:06:08.119Z,99757
2017-10-22T08:07:08.164Z,99758
2017-10-22T08:08:07.693Z,99752
2017-10-22T08:09:07.786Z,99754
2017-10-22T08:10:08.503Z,99748
2017-10-22T08:11:08.601Z,99748
2017-10-22T08:12:08.613Z,99754
2017-10-22T08:13:08.630Z,99752
2017-10-22T08:14:08.031Z,99751
2017-10-22T08:15:08.734Z,99745
2017-10-22T08:16:08.636Z,99757
2017-10-22T08:17:08.852Z,99758
2017-10-22T08:18:08.365Z,99753
2017-10-22T08:19:08.301Z,99752
2017-10-22T08:20:08.931Z,99755
2017-10-22T08:21:08.415Z,99752
2017-10-22T08:22:09.038Z,99762
2017-10-22T08:23:08.637Z,99760
2017-10-22T08:24:08.717Z,99757
2017-10-22T08:25:09.185Z,99761
2017-10-22T08:26:08.771Z,99761
2017-10-22T08:27:08.796Z,99755
2017-10-22T08:28:08.826Z,99752
2017-10-22T08:29:08.911Z,99758
2017-10-22T08:30:08.958Z,99762
2017-10-22T08:31:08.940Z,99762
2017-10-22T08:32:09.634Z,99760
2017-10-22T08:33:09.647Z,99767
2017-10-22T08:34:09.044Z,99767
2017-10-22T08:35:09.121Z,99760
2017-10-22T08:36:09.190Z,99767
2017-10-22T08:37:09.369Z,99765
2017-10-22T08:38:09.427Z,99762
2017-10-22T08:39:10.005Z,99764
2017-10-22T08:40:09.534Z,99764
2017-10-22T08:41:10.112Z,99767
2017-10-22T08:42:10.013Z,99768
2017-10-22T08:43:09.683Z,99767
2017-10-22T08:44:10.182Z,99763
2017-10-22T08:45:09.695Z,99767
2017-10-22T08:46:09.719Z,99756
2017-10-22T08:47:10.426Z,99759
2017-10-22T08:48:09.931Z,99766
2017-10-22T08:49:10.042Z,99771
2017-10-22T08:50:10.537Z,99766
2017-10-22T08:51:10.757Z,99767
2017-10-22T08:52:10.781Z,99771
2017-10-22T08:53:10.199Z,99765
2017-10-22T08:54:10.204Z,99764
2017-10-22T08:55:10.308Z,99769
2017-10-22T08:56:10.790Z,99766
2017-10-22T08:57:10.925Z,99763
2017-10-22T08:58:10.313Z,99769
2017-10-22T08:59:11.013Z,99770
2017-10-22T09:00:11.022Z,99759
2017-10-22T09:01:11.044Z,99769
2017-10-22T09:02:11.067Z,99765
2017-10-22T09:03:11.039Z,99770
2017-10-22T09:04:10.538Z,99768
2017-10-22T09:05:10.556Z,99766
2017-10-22T09:06:10.637Z,99766
2017-10-22T09:07:10.714Z,99770
2017-10-22T09:08:10.899Z,99772
2017-10-22T09:09:11.477Z,99773
2017-10-22T09:10:11.396Z,99770
2017-10-22T09:11:10.876Z,99774
2017-10-22T09:12:11.602Z,99769
2017-10-22T09:13:11.517Z,99763
2017-10-22T09:14:11.055Z,99777
2017-10-22T09:15:11.689Z,99773
2017-10-22T09:16:11.791Z,99773
2017-10-22T09:17:11.195Z,99779
2017-10-22T09:18:11.905Z,99774
2017-10-22T09:19:11.378Z,99777
2017-10-22T09:20:11.468Z,99772
2017-10-22T09:21:12.047Z,99785
2017-10-22T09:22:12.012Z,99784
2017-10-22T09:23:12.203Z,99782
2017-10-22T09:24:12.238Z,99782
2017-10-22T09:25:12.139Z,99780
2017-10-22T09:26:12.162Z,99780
2017-10-22T09:27:12.311Z,99782
2017-10-22T09:28:11.885Z,99777
2017-10-22T09:29:11.896Z,99784
2017-10-22T09:30:11.857Z,99781
2017-10-22T09:31:12.548Z,99783
2017-10-22T09:32:12.025Z,99782
2017-10-22T09:33:12.714Z,99780
2017-10-22T09:34:12.640Z,99783
2017-10-22T09:35:12.697Z,99778
2017-10-22T09:36:12.747Z,99784
2017-10-22T09:37:12.950Z,99787
2017-10-22T09:38:12.390Z,99783
2017-10-22T09:39:12.997Z,99779
2017-10-22T09:40:12.610Z,99787
2017-10-22T09:41:12.589Z,99785
2017-10-22T09:42:12.759Z,99782
2017-10-22T09:43:13.254Z,99790
2017-10-22T09:44:13.356Z,99783
2017-10-22T09:45:12.749Z,99786
2017-10-22T09:46:12.822Z,99787
2017-10-22T09:47:13.012Z,99787
2017-10-22T09:48:13.451Z,99791
2017-10-22T09:49:13.615Z,99791
2017-10-22T09:50:13.567Z,99784
2017-10-22T09:51:13.606Z,99780
2017-10-22T09:52:13.623Z,99785
2017-10-22T09:53:13.653Z,99783
2017-10-22T09:54:13.187Z,99782
2017-10-22T09:55:13.784Z,99782
2017-10-22T09:56:13.800Z,99780
2017-10-22T09:57:13.303Z,99782
2017-10-22T09:58:14.025Z,99786
2017-10-22T09:59:13.577Z,99784
2017-10-22T10:00:13.611Z,99785
2017-10-22T10:01:14.112Z,99784
2017-10-22T10:02:13.743Z,99792
2017-10-22T10:03:13.839Z,99787
2017-10-22T10:04:13.778Z,99787
2017-10-22T10:05:13.841Z,99787
2017-10-22T10:06:14.440Z,99793
2017-10-22T10:07:14.600Z,99791
2017-10-22T10:08:14.520Z,99793
2017-10-22T10:09:14.536Z,99791
2017-10-22T10:10:14.126Z,99792
2017-10-22T10:11:14.092Z,99796
2017-10-22T10:12:14.775Z,99796
2017-10-22T10:13:14.154Z,99793
2017-10-22T10:14:14.261Z,99791
2017-10-22T10:15:14.883Z,99794
2017-10-22T10:16:14.438Z,99794
2017-10-22T10:17:14.366Z,99795
2017-10-22T10:18:14.424Z,99792
2017-10-22T10:19:15.040Z,99799
2017-10-22T10:20:14.546Z,99792
2017-10-22T10:21:15.253Z,99796
2017-10-22T10:22:14.660Z,99796
2017-10-22T10:23:14.787Z,99790
2017-10-22T10:24:14.774Z,99796
2017-10-22T10:25:15.455Z,99798
2017-10-22T10:26:14.961Z,99799
2017-10-22T10:27:14.933Z,99802
2017-10-22T10:28:15.094Z,99805
2017-10-22T10:29:15.557Z,99801
2017-10-22T10:30:15.200Z,99801
2017-10-22T10:31:15.262Z,99801
2017-10-22T10:32:15.742Z,99805
2017-10-22T10:33:15.742Z,99796
2017-10-22T10:34:15.825Z,99803
2017-10-22T10:35:15.510Z,99805
2017-10-22T10:36:15.499Z,99801
2017-10-22T10:37:16.226Z,99800
2017-10-22T10:38:16.302Z,99802
2017-10-22T10:39:16.229Z,99801
2017-10-22T10:40:16.269Z,99803
2017-10-22T10:41:16.305Z,99805
2017-10-22T10:42:16.494Z,99798
2017-10-22T10:43:15.968Z,99800
2017-10-22T10:44:16.516Z,99800
2017-10-22T10:45:16.532Z,99804
2017-10-22T10:46:16.161Z,99801
2017-10-22T10:47:16.112Z,99798
2017-10-22T10:48:16.738Z,99800
2017-10-22T10:49:16.277Z,99806
2017-10-22T10:50:16.963Z,99810
2017-10-22T10:51:16.918Z,99803
2017-10-22T10:52:17.046Z,99808
2017-10-22T10:53:16.526Z,99810
2017-10-22T10:54:17.153Z,99809
2017-10-22T10:55:16.691Z,99809
2017-10-22T10:56:17.288Z,99812
2017-10-22T10:57:16.776Z,99809
2017-10-22T10:58:17.297Z,99813
2017-10-22T10:59:16.878Z,99811
2017-10-22T11:00:17.427Z,99810
2017-10-22T11:01:17.464Z,99810
2017-10-22T11:02:17.497Z,99810
2017-10-22T11:03:16.979Z,99807
2017-10-22T11:04:17.652Z,99807
2017-10-22T11:05:17.004Z,99809
2017-10-22T11:06:17.115Z,99818
2017-10-22T11:07:17.718Z,99814
2017-10-22T11:08:17.753Z,99812
2017-10-22T11:09:17.245Z,99812
2017-10-22T11:10:17.314Z,99814
2017-10-22T11:11:17.862Z,99807
2017-10-22T11:12:17.912Z,99814
2017-10-22T11:13:17.369Z,99810
2017-10-22T11:14:17.351Z,99810
2017-10-22T11:15:17.903Z,99807
2017-10-22T11:16:17.441Z,99810
2017-10-22T11:17:18.169Z,99804
2017-10-22T11:18:18.211Z,99810
2017-10-22T11:19:17.621Z,99812
2017-10-22T11:20:17.734Z,99811
2017-10-22T11:21:18.247Z,99810
2017-10-22T11:22:17.771Z,99810
2017-10-22T11:23:17.827Z,99806
2017-10-22T11:24:18.456Z,99809
2017-10-22T11:25:18.471Z,99811
2017-10-22T11:26:18.061Z,99813
2017-10-22T11:27:18.538Z,99814
2017-10-22T11:28:18.163Z,99807
2017-10-22T11:29:18.642Z,99812
2017-10-22T11:30:18.288Z,99811
2017-10-22T11:31:18.396Z,99813
2017-10-22T11:32:18.426Z,99819
2017-10-22T11:33:18.976Z,99816
2017-10-22T11:34:18.326Z,99818
2017-10-22T11:35:19.030Z,99816
2017-10-22T11:36:18.535Z,99815
2017-10-22T11:37:18.513Z,99816
2017-10-22T11:38:19.108Z,99817
2017-10-22T11:39:19.160Z,99816
2017-10-22T11:40:19.258Z,99814
2017-10-22T11:41:19.259Z,99817
2017-10-22T11:42:19.288Z,99821
2017-10-22T11:43:19.346Z,99818
2017-10-22T11:44:18.863Z,99818
2017-10-22T11:45:18.906Z,99817
2017-10-22T11:46:18.994Z,99822
2017-10-22T11:47:19.714Z,99822
2017-10-22T11:48:19.170Z,99819
2017-10-22T11:49:19.768Z,99817
2017-10-22T11:50:19.839Z,99820
2017-10-22T11:51:20.050Z,99822
2017-10-22T11:52:20.050Z,99818
2017-10-22T11:53:19.946Z,99822
2017-10-22T11:54:20.032Z,99823
2017-10-22T11:55:19.509Z,99821
2017-10-22T11:56:20.202Z,99823
2017-10-22T11:57:20.248Z,99819
2017-10-22T11:58:19.784Z,99824
2017-10-22T11:59:19.849Z,99821
2017-10-22T12:00:20.362Z,99827
2017-10-22T12:01:20.498Z,99821
2017-10-22T12:02:19.923Z,99819
2017-10-22T12:03:20.633Z,99830
2017-10-22T12:04:20.143Z,99829
2017-10-22T12:05:20.105Z,99824
2017-10-22T12:06:20.207Z,99828
2017-10-22T12:07:20.224Z,99820
2017-10-22T12:08:20.239Z,99824
2017-10-22T12:09:20.794Z,99824
2017-10-22T12:10:20.172Z,99826
2017-10-22T12:11:20.226Z,99820
2017-10-22T12:12:20.357Z,99823
2017-10-22T12:13:20.434Z,99824
2017-10-22T12:14:20.939Z,99824
2017-10-22T12:15:21.060Z,99824
2017-10-22T12:16:21.136Z,99821
2017-10-22T12:17:20.660Z,99823
2017-10-22T12:18:20.713Z,99826
2017-10-22T12:19:20.631Z,99828
2017-10-22T12:20:20.718Z,99828
2017-10-22T12:21:21.357Z,99818
2017-10-22T12:22:21.258Z,99827
2017-10-22T12:23:20.838Z,99825
2017-10-22T12:24:21.438Z,99825
2017-10-22T12:25:21.474Z,99827
2017-10-22T12:26:21.531Z,99830
2017-10-22T12:27:21.658Z,99831
2017-10-22T12:28:21.707Z,99827
2017-10-22T12:29:21.136Z,99830
2017-10-22T12:30:21.310Z,99832
2017-10-22T12:31:21.862Z,99829
2017-10-22T12:32:21.921Z,99829
2017-10-22T12:33:21.455Z,99827
2017-10-22T12:34:21.892Z,99832
2017-10-22T12:35:22.035Z,99829
2017-10-22T12:36:21.481Z,99836
2017-10-22T12:37:21.584Z,99836
2017-10-22T12:38:22.095Z,99840
2017-10-22T12:39:22.226Z,99844
2017-10-22T12:40:22.201Z,99839
2017-10-22T12:41:22.285Z,99838
2017-10-22T12:42:21.893Z,99835
2017-10-22T12:43:22.489Z,99838
2017-10-22T12:44:21.974Z,99838
2017-10-22T12:45:22.627Z,99834
2017-10-22T12:46:22.674Z,99830
2017-10-22T12:47:22.102Z,99836
2017-10-22T12:48:22.802Z,99838
2017-10-22T12:49:22.704Z,99828
2017-10-22T12:50:22.884Z,99836
2017-10-22T12:51:22.405Z,99833
2017-10-22T12:52:22.942Z,99830
2017-10-22T12:53:22.957Z,99836
2017-10-22T12:54:23.010Z,99836
2017-10-22T12:55:22.589Z,99840
2017-10-22T12:56:23.076Z,99839
2017-10-22T12:57:22.914Z,99834